LFMI 211130Z AUTO 36018KT CAVOK 07/M03 Q1024 NOSIG

ElémentsDécodage
LFMI Station météo située sur l'aérodrome de ISTRES Le-Tubé
211130Z émis le 21 du mois à 11h30 UTC
AUTO Bulletin édité par un automate
36018KT vent du 360°, 18 noeuds
CAVOK Ceiling And Visibility OK
- Visibilité de 10 Km ou plus
- Pas de nuage au-dessous de 1500m ou au-dessous de l'altitude minimale du secteur la plus élevée (si>1500m) et absence de CB
- pas de temps présent significatif
07/M03 température 07°C, point de rosée -03°C
 soit une humidité relative de 49%
Q1024 la pression au niveau de la mer (QNH) est de 1024 hPa
NOSIG Pas de changement significatif prévu au cours des deux heures suivant l'heure de l'observation